createdAt,value
2019-01-29T00:00:46.075Z,39.48
2019-01-29T00:03:15.517Z,41.33
2019-01-29T00:05:45.510Z,39.87
2019-01-29T00:08:14.901Z,40.67
2019-01-29T00:10:44.235Z,41.70
2019-01-29T00:13:13.604Z,41.70
2019-01-29T00:15:43.097Z,41.80
2019-01-29T00:18:12.508Z,40.33
2019-01-29T00:20:41.974Z,42.33
2019-01-29T00:23:11.472Z,42.23
2019-01-29T00:25:40.947Z,42.17
2019-01-29T00:28:10.724Z,40.60
2019-01-29T00:30:40.675Z,41.65
2019-01-29T00:33:11.297Z,40.13
2019-01-29T00:35:40.709Z,40.97
2019-01-29T00:38:11.044Z,42.10
2019-01-29T00:40:42.167Z,42.05
2019-01-29T00:43:11.887Z,43.07
2019-01-29T00:45:41.472Z,42.90
2019-01-29T00:48:10.840Z,43.37
2019-01-29T00:50:40.469Z,42.97
2019-01-29T00:53:10.396Z,42.90
2019-01-29T00:55:39.724Z,42.80
2019-01-29T00:58:09.262Z,46.07
2019-01-29T01:00:38.649Z,43.23
2019-01-29T01:03:08.068Z,42.20
2019-01-29T01:05:37.696Z,42.90
2019-01-29T01:08:07.048Z,41.63
2019-01-29T01:10:37.160Z,41.33
2019-01-29T01:13:06.671Z,42.07
2019-01-29T01:15:36.327Z,41.23
2019-01-29T01:18:05.598Z,39.10
2019-01-29T01:20:35.026Z,37.60
2019-01-29T01:23:05.264Z,37.70
2019-01-29T01:25:35.346Z,37.23
2019-01-29T01:28:05.833Z,35.77
2019-01-29T01:30:35.399Z,37.03
2019-01-29T01:33:04.873Z,37.60
2019-01-29T01:35:35.023Z,36.50
2019-01-29T01:38:04.407Z,37.67
2019-01-29T01:40:33.742Z,37.77
2019-01-29T01:43:03.128Z,37.23
2019-01-29T01:45:32.551Z,39.63
2019-01-29T01:48:05.625Z,42.20
2019-01-29T01:50:34.956Z,41.37
2019-01-29T01:53:04.255Z,45.93
2019-01-29T01:55:33.645Z,39.57
2019-01-29T01:58:03.650Z,39.40
2019-01-29T02:00:33.856Z,38.77
2019-01-29T02:03:03.539Z,38.07
2019-01-29T02:05:33.071Z,34.63
2019-01-29T02:08:03.051Z,33.35
2019-01-29T02:10:32.539Z,28.23
2019-01-29T02:13:02.044Z,30.60
2019-01-29T02:15:31.499Z,29.50
2019-01-29T02:18:01.103Z,27.83
2019-01-29T02:20:30.315Z,29.30
2019-01-29T02:23:07.575Z,29.40
2019-01-29T02:25:30.856Z,31.57
2019-01-29T02:28:00.553Z,29.67
2019-01-29T02:30:29.880Z,29.40
2019-01-29T02:32:59.303Z,31.43
2019-01-29T02:35:28.609Z,35.50
2019-01-29T02:37:59.198Z,30.60
2019-01-29T02:40:29.337Z,31.20
2019-01-29T02:42:59.735Z,27.30
2019-01-29T02:45:29.160Z,31.27
2019-01-29T02:47:58.473Z,26.30
2019-01-29T02:50:27.980Z,26.40
2019-01-29T02:52:57.418Z,26.13
2019-01-29T02:55:26.881Z,25.60
2019-01-29T02:57:56.447Z,26.90
2019-01-29T03:00:27.170Z,26.50
2019-01-29T03:02:56.670Z,26.20
2019-01-29T03:05:26.199Z,27.00
2019-01-29T03:07:55.514Z,26.47
2019-01-29T03:10:26.529Z,25.43
2019-01-29T03:12:57.124Z,25.85
2019-01-29T03:15:29.581Z,26.07
2019-01-29T03:17:59.228Z,26.57
2019-01-29T03:20:28.706Z,26.13
2019-01-29T03:22:58.068Z,25.93
2019-01-29T03:25:28.024Z,26.90
2019-01-29T03:27:57.438Z,28.30
2019-01-29T03:30:28.250Z,24.67
2019-01-29T03:32:57.692Z,24.83
2019-01-29T03:35:27.081Z,23.97
2019-01-29T03:37:56.550Z,23.00
2019-01-29T03:40:27.657Z,23.20
2019-01-29T03:42:57.027Z,25.27
2019-01-29T03:45:26.502Z,21.17
2019-01-29T03:47:55.863Z,24.10
2019-01-29T03:50:26.318Z,24.60
2019-01-29T03:52:55.727Z,21.93
2019-01-29T03:55:25.227Z,24.33
2019-01-29T03:57:54.605Z,24.23
2019-01-29T04:00:28.478Z,22.97
2019-01-29T04:02:58.010Z,24.57
2019-01-29T04:05:27.588Z,26.50
2019-01-29T04:07:56.945Z,23.17
2019-01-29T04:10:26.275Z,24.53
2019-01-29T04:12:55.588Z,25.93
2019-01-29T04:15:25.120Z,26.03
2019-01-29T04:17:56.762Z,27.60
2019-01-29T04:20:26.528Z,29.50
2019-01-29T04:22:55.824Z,28.33
2019-01-29T04:25:25.675Z,28.63
2019-01-29T04:27:55.558Z,23.23
2019-01-29T04:30:25.070Z,23.43
2019-01-29T04:32:54.683Z,24.40
2019-01-29T04:35:24.177Z,23.10
2019-01-29T04:37:53.663Z,21.77
2019-01-29T04:40:23.121Z,21.97
2019-01-29T04:42:53.487Z,20.10
2019-01-29T04:45:22.949Z,20.57
2019-01-29T04:47:52.356Z,21.40
2019-01-29T04:50:22.114Z,19.37
2019-01-29T04:52:52.083Z,21.20
2019-01-29T04:55:21.682Z,19.50
2019-01-29T04:57:51.032Z,19.47
2019-01-29T05:00:25.234Z,25.90
2019-01-29T05:03:04.439Z,27.00
2019-01-29T05:05:33.809Z,28.63
2019-01-29T05:08:03.201Z,32.30
2019-01-29T05:10:32.747Z,33.87
2019-01-29T05:13:03.280Z,35.13
2019-01-29T05:15:32.686Z,33.77
2019-01-29T05:18:02.248Z,31.62
2019-01-29T05:20:31.741Z,31.43
2019-01-29T05:23:01.491Z,22.67
2019-01-29T05:25:31.048Z,19.57
2019-01-29T05:28:00.511Z,18.70
2019-01-29T05:30:35.030Z,18.90
2019-01-29T05:33:04.551Z,16.80
2019-01-29T05:35:34.032Z,15.97
2019-01-29T05:38:04.198Z,18.10
2019-01-29T05:40:34.060Z,17.40
2019-01-29T05:43:04.723Z,18.17
2019-01-29T05:45:34.188Z,17.50
2019-01-29T05:48:03.598Z,14.10
2019-01-29T05:50:32.935Z,14.93
2019-01-29T05:53:02.233Z,14.10
2019-01-29T05:55:31.807Z,11.80
2019-01-29T05:58:01.311Z,12.30
2019-01-29T06:00:38.286Z,12.17
2019-01-29T06:03:08.210Z,11.53
2019-01-29T06:05:37.674Z,13.33
2019-01-29T06:08:08.007Z,10.00
2019-01-29T06:10:37.330Z,10.43
2019-01-29T06:13:06.847Z,10.50
2019-01-29T06:15:36.243Z,10.83
2019-01-29T06:18:05.610Z,11.47
2019-01-29T06:20:34.920Z,9.80
2019-01-29T06:23:04.421Z,10.27
2019-01-29T06:25:33.868Z,9.83
2019-01-29T06:28:03.311Z,11.00
2019-01-29T06:30:33.086Z,10.60
2019-01-29T06:33:03.708Z,10.58
2019-01-29T06:35:34.020Z,10.20
2019-01-29T06:38:03.720Z,10.80
2019-01-29T06:40:33.047Z,10.47
2019-01-29T06:43:02.911Z,10.05
2019-01-29T06:45:33.813Z,10.38
2019-01-29T06:48:03.983Z,9.75
2019-01-29T06:50:33.498Z,10.30
2019-01-29T06:53:03.010Z,9.83
2019-01-29T06:55:32.374Z,11.20
2019-01-29T06:58:02.039Z,12.67
2019-01-29T07:00:32.861Z,14.38
2019-01-29T07:03:02.776Z,14.55
2019-01-29T07:05:32.272Z,14.53
2019-01-29T07:08:01.995Z,13.00
2019-01-29T07:10:31.407Z,12.97
2019-01-29T07:13:00.929Z,13.13
2019-01-29T07:15:48.627Z,13.57
2019-01-29T07:18:25.440Z,14.37
2019-01-29T07:20:56.074Z,14.70
2019-01-29T07:23:25.966Z,14.15
2019-01-29T07:25:55.882Z,10.72
2019-01-29T07:28:28.199Z,13.03
2019-01-29T07:30:57.639Z,13.17
2019-01-29T07:33:27.418Z,12.67
2019-01-29T07:35:57.527Z,13.30
2019-01-29T07:38:26.897Z,13.30
2019-01-29T07:40:56.969Z,14.43
2019-01-29T07:43:26.570Z,14.13
2019-01-29T07:45:57.064Z,14.23
2019-01-29T07:48:26.955Z,15.03
2019-01-29T07:50:58.113Z,15.00
2019-01-29T07:53:27.482Z,14.83
2019-01-29T07:55:56.932Z,12.50
2019-01-29T07:58:26.414Z,11.47
2019-01-29T08:00:56.463Z,11.45
2019-01-29T08:03:26.504Z,9.17
2019-01-29T08:05:56.017Z,10.73
2019-01-29T08:08:26.919Z,10.55
2019-01-29T08:10:56.909Z,9.95
2019-01-29T08:13:26.836Z,10.32
2019-01-29T08:15:56.211Z,10.45
2019-01-29T08:18:25.724Z,10.10
2019-01-29T08:20:55.280Z,10.53
2019-01-29T08:23:25.304Z,11.18
2019-01-29T08:25:57.338Z,10.60
2019-01-29T08:28:27.313Z,10.05
2019-01-29T08:30:57.271Z,12.15
2019-01-29T08:33:27.264Z,11.68
2019-01-29T08:35:56.565Z,11.27
2019-01-29T08:38:27.047Z,12.13
2019-01-29T08:40:57.230Z,15.18
2019-01-29T08:43:27.247Z,11.78
2019-01-29T08:45:57.268Z,12.63
2019-01-29T08:48:27.405Z,13.00
2019-01-29T08:50:58.241Z,12.15
2019-01-29T08:53:29.997Z,13.10
2019-01-29T08:56:00.002Z,13.03
2019-01-29T08:58:30.171Z,13.68
2019-01-29T09:01:00.141Z,13.08
2019-01-29T09:03:30.168Z,13.95
2019-01-29T09:06:00.362Z,14.28
2019-01-29T09:08:30.329Z,13.45
2019-01-29T09:11:00.322Z,13.93
2019-01-29T09:13:30.448Z,13.43
2019-01-29T09:16:01.939Z,13.88
2019-01-29T09:18:31.908Z,14.13
2019-01-29T09:21:01.851Z,15.03
2019-01-29T09:23:33.168Z,15.70
2019-01-29T09:26:03.173Z,15.55
2019-01-29T09:28:33.208Z,16.62
2019-01-29T09:31:03.459Z,16.90
2019-01-29T09:33:33.628Z,15.53
2019-01-29T09:36:03.807Z,16.60
2019-01-29T09:38:33.794Z,17.15
2019-01-29T09:41:03.722Z,16.50
2019-01-29T09:43:33.739Z,17.48
2019-01-29T09:46:03.822Z,17.40
2019-01-29T09:48:35.163Z,14.95
2019-01-29T09:51:05.381Z,16.35
2019-01-29T09:53:36.255Z,17.40
2019-01-29T09:56:06.863Z,17.67
2019-01-29T09:58:37.089Z,19.55
2019-01-29T10:01:07.451Z,17.67
2019-01-29T10:03:37.399Z,19.12
2019-01-29T10:06:07.325Z,20.85
2019-01-29T10:34:40.255Z,12.95
2019-01-29T10:37:10.225Z,12.20
2019-01-29T10:39:40.123Z,12.37
2019-01-29T10:42:10.031Z,9.10
2019-01-29T10:44:40.144Z,13.03
2019-01-29T10:47:14.873Z,12.47
2019-01-29T10:49:45.137Z,12.53
2019-01-29T10:52:15.035Z,12.33
2019-01-29T10:54:44.919Z,13.05
2019-01-29T10:57:14.792Z,12.00
2019-01-29T10:59:44.698Z,12.37
2019-01-29T11:02:13.992Z,15.13
2019-01-29T11:04:43.877Z,14.00
2019-01-29T11:07:13.215Z,14.63
2019-01-29T11:09:43.155Z,13.18
2019-01-29T11:12:12.665Z,12.60
2019-01-29T11:14:42.606Z,14.15
2019-01-29T11:17:12.012Z,13.93
2019-01-29T11:19:43.075Z,15.23
2019-01-29T11:22:13.058Z,15.95
2019-01-29T11:24:45.031Z,14.78
2019-01-29T11:27:14.503Z,11.50
2019-01-29T11:29:44.431Z,15.08
2019-01-29T11:32:14.381Z,15.43
2019-01-29T11:34:44.324Z,13.83
2019-01-29T11:37:13.707Z,16.57
2019-01-29T11:39:43.670Z,13.98
2019-01-29T11:42:14.697Z,19.07
2019-01-29T11:44:44.730Z,18.70
2019-01-29T11:47:14.677Z,17.48
2019-01-29T11:49:44.019Z,19.33
2019-01-29T11:52:14.745Z,15.55
2019-01-29T11:54:44.237Z,25.87
2019-01-29T11:57:14.333Z,17.60
2019-01-29T11:59:44.344Z,17.42
2019-01-29T12:02:16.252Z,16.40
2019-01-29T12:04:45.283Z,17.33
2019-01-29T12:07:15.203Z,18.80
2019-01-29T12:09:45.146Z,19.90
2019-01-29T12:12:15.139Z,16.57
2019-01-29T12:14:45.035Z,18.62
2019-01-29T12:17:14.994Z,18.30
2019-01-29T12:19:45.103Z,17.77
2019-01-29T12:22:17.714Z,13.00
2019-01-29T12:24:47.771Z,13.78
2019-01-29T12:27:18.732Z,18.80
2019-01-29T12:29:48.063Z,17.97
2019-01-29T12:32:17.939Z,18.05
2019-01-29T12:34:47.242Z,19.93
2019-01-29T12:37:17.175Z,21.85
2019-01-29T12:39:46.476Z,19.43
2019-01-29T12:42:16.355Z,15.83
2019-01-29T12:44:45.790Z,15.70
2019-01-29T12:47:16.067Z,15.50
2019-01-29T12:49:46.053Z,17.10
2019-01-29T12:52:18.446Z,14.53
2019-01-29T12:54:48.489Z,13.75
2019-01-29T12:57:18.421Z,12.88
2019-01-29T12:59:48.375Z,12.70
2019-01-29T13:02:18.291Z,13.13
2019-01-29T13:04:48.199Z,13.22
2019-01-29T13:07:18.375Z,13.40
2019-01-29T13:09:48.246Z,12.63
2019-01-29T13:12:18.127Z,11.93
2019-01-29T13:14:48.047Z,11.78
2019-01-29T13:17:17.927Z,12.13
2019-01-29T13:19:47.942Z,12.35
2019-01-29T13:22:17.832Z,13.45
2019-01-29T13:24:47.785Z,14.47
2019-01-29T13:27:17.743Z,13.53
2019-01-29T13:29:47.616Z,14.93
2019-01-29T13:32:17.531Z,15.55
2019-01-29T13:34:47.407Z,14.25
2019-01-29T13:37:17.287Z,13.15
2019-01-29T13:39:47.170Z,14.55
2019-01-29T13:42:17.139Z,11.75
2019-01-29T13:44:47.067Z,14.07
2019-01-29T13:47:18.656Z,13.20
2019-01-29T13:49:48.570Z,12.33
2019-01-29T13:52:18.455Z,12.25
2019-01-29T13:54:49.292Z,13.10
2019-01-29T13:57:19.169Z,13.80
2019-01-29T13:59:49.048Z,13.18
2019-01-29T14:02:18.964Z,13.72
2019-01-29T14:04:48.945Z,13.38
2019-01-29T14:07:18.823Z,12.80
2019-01-29T14:09:48.706Z,15.28
2019-01-29T14:12:18.584Z,14.35
2019-01-29T14:14:48.492Z,14.38
2019-01-29T14:17:18.365Z,14.15
2019-01-29T14:19:48.240Z,14.47
2019-01-29T14:22:18.241Z,16.90
2019-01-29T14:24:48.188Z,16.23
2019-01-29T14:27:18.067Z,17.17
2019-01-29T14:29:47.370Z,14.30
2019-01-29T14:32:16.739Z,16.00
2019-01-29T14:34:46.730Z,15.30
2019-01-29T14:37:16.598Z,13.90
2019-01-29T14:39:55.028Z,16.63
2019-01-29T14:42:24.898Z,15.98
2019-01-29T14:44:54.778Z,15.60
2019-01-29T14:47:24.115Z,15.60
2019-01-29T14:49:53.414Z,13.55
2019-01-29T14:52:23.315Z,16.62
2019-01-29T14:54:52.748Z,15.43
2019-01-29T14:57:22.056Z,16.07
2019-01-29T14:59:51.363Z,16.27
2019-01-29T15:02:21.441Z,15.50
2019-01-29T15:04:50.753Z,15.83
2019-01-29T15:07:20.196Z,16.30
2019-01-29T15:09:49.841Z,17.57
2019-01-29T15:12:19.400Z,16.63
2019-01-29T15:14:49.474Z,20.50
2019-01-29T15:17:26.564Z,18.07
2019-01-29T15:19:56.022Z,20.27
2019-01-29T15:22:25.397Z,19.23
2019-01-29T15:24:54.954Z,19.67
2019-01-29T15:27:24.907Z,19.20
2019-01-29T15:29:55.299Z,20.43
2019-01-29T15:32:24.633Z,19.23
2019-01-29T15:34:54.652Z,18.62
2019-01-29T15:37:24.675Z,18.95
2019-01-29T15:39:54.135Z,20.07
2019-01-29T15:42:24.087Z,19.95
2019-01-29T15:44:53.551Z,19.10
2019-01-29T15:47:23.350Z,19.05
2019-01-29T15:49:52.680Z,19.33
2019-01-29T15:52:22.751Z,19.37
2019-01-29T15:54:52.388Z,19.93
2019-01-29T15:57:22.448Z,17.60
2019-01-29T15:59:52.690Z,17.48
2019-01-29T16:02:21.987Z,17.80
2019-01-29T16:04:51.419Z,17.73
2019-01-29T16:07:20.991Z,17.30
2019-01-29T16:09:51.001Z,20.80
2019-01-29T16:12:20.320Z,19.67
2019-01-29T16:14:49.691Z,19.93
2019-01-29T16:17:19.610Z,19.32
2019-01-29T16:19:49.539Z,20.50
2019-01-29T16:22:19.636Z,19.57
2019-01-29T16:24:49.158Z,19.57
2019-01-29T16:27:22.710Z,20.00
2019-01-29T16:29:50.325Z,19.40
2019-01-29T16:32:20.283Z,19.10
2019-01-29T16:34:49.694Z,18.52
2019-01-29T16:37:19.571Z,18.02
2019-01-29T16:39:48.990Z,17.30
2019-01-29T16:42:19.055Z,18.75
2019-01-29T16:44:49.016Z,18.25
2019-01-29T16:47:19.012Z,18.77
2019-01-29T16:49:48.602Z,19.00
2019-01-29T16:52:18.752Z,18.95
2019-01-29T16:54:48.111Z,18.10
2019-01-29T16:57:18.051Z,17.90
2019-01-29T16:59:48.305Z,17.32
2019-01-29T17:02:18.318Z,17.02
2019-01-29T17:04:48.006Z,16.70
2019-01-29T17:07:17.948Z,17.57
2019-01-29T17:09:48.666Z,18.65
2019-01-29T17:12:18.319Z,19.20
2019-01-29T17:14:49.672Z,30.27
2019-01-29T17:17:18.555Z,17.93
2019-01-29T17:19:47.927Z,23.37
2019-01-29T17:22:17.283Z,26.60
2019-01-29T17:24:47.222Z,19.15
2019-01-29T17:27:16.549Z,18.00
2019-01-29T17:29:45.852Z,18.03
2019-01-29T17:32:15.146Z,16.63
2019-01-29T17:34:45.094Z,18.07
2019-01-29T17:37:14.397Z,18.70
2019-01-29T17:39:43.726Z,21.67
2019-01-29T17:42:13.739Z,21.37
2019-01-29T17:44:43.622Z,20.48
2019-01-29T17:47:12.945Z,19.83
2019-01-29T17:49:42.297Z,20.97
2019-01-29T17:52:11.576Z,21.10
2019-01-29T17:54:40.881Z,21.77
2019-01-29T17:57:11.870Z,27.25
2019-01-29T17:59:41.195Z,31.33
2019-01-29T18:02:12.040Z,28.92
2019-01-29T18:04:41.578Z,29.97
2019-01-29T18:07:10.861Z,30.90
2019-01-29T18:09:40.206Z,30.83
2019-01-29T18:12:09.580Z,29.00
2019-01-29T18:14:38.882Z,28.52
2019-01-29T18:17:08.221Z,28.37
2019-01-29T18:19:37.527Z,30.77
2019-01-29T18:22:07.406Z,30.55
2019-01-29T18:24:37.380Z,30.00
2019-01-29T18:27:06.748Z,29.00
2019-01-29T18:29:36.049Z,29.30
2019-01-29T18:32:05.465Z,24.43
2019-01-29T18:34:34.755Z,25.62
2019-01-29T18:37:04.119Z,23.17
2019-01-29T18:39:33.615Z,25.40
2019-01-29T18:42:03.056Z,21.77
2019-01-29T18:44:32.357Z,21.17
2019-01-29T18:47:01.686Z,19.10
2019-01-29T18:49:30.992Z,26.23
2019-01-29T18:52:01.448Z,19.37
2019-01-29T18:54:31.342Z,23.10
2019-01-29T18:57:00.644Z,19.70
2019-01-29T18:59:29.990Z,19.63
2019-01-29T19:01:59.438Z,20.43
2019-01-29T19:04:29.577Z,21.07
2019-01-29T19:06:59.513Z,22.60
2019-01-29T19:09:29.406Z,23.25
2019-01-29T19:11:58.900Z,24.77
2019-01-29T19:14:28.202Z,22.37
2019-01-29T19:16:57.529Z,21.63
2019-01-29T19:19:26.969Z,21.63
2019-01-29T19:21:56.194Z,19.47
2019-01-29T19:24:25.497Z,19.40
2019-01-29T19:26:55.480Z,19.80
2019-01-29T19:29:24.786Z,15.37
2019-01-29T19:31:54.089Z,11.97
2019-01-29T19:34:23.567Z,10.10
2019-01-29T19:36:53.438Z,9.98
2019-01-29T19:39:22.887Z,10.57
2019-01-29T19:41:52.822Z,11.08
2019-01-29T19:44:22.429Z,10.03
2019-01-29T19:46:52.375Z,10.00
2019-01-29T19:49:22.431Z,10.08
2019-01-29T19:51:52.614Z,11.38
2019-01-29T19:54:22.342Z,11.13
2019-01-29T19:56:52.338Z,11.57
2019-01-29T19:59:22.229Z,11.20
2019-01-29T20:01:52.127Z,12.10
2019-01-29T20:04:22.162Z,15.63
2019-01-29T20:06:52.397Z,13.83
2019-01-29T20:09:21.711Z,13.83
2019-01-29T20:11:51.087Z,15.27
2019-01-29T20:14:20.490Z,15.57
2019-01-29T20:16:49.855Z,13.70
2019-01-29T20:19:19.419Z,13.03
2019-01-29T20:21:49.338Z,13.43
2019-01-29T20:24:18.770Z,14.03
2019-01-29T20:26:48.139Z,17.80
2019-01-29T20:29:18.120Z,14.15
2019-01-29T20:31:48.003Z,13.93
2019-01-29T20:34:17.778Z,12.73
2019-01-29T20:36:47.437Z,12.70
2019-01-29T20:39:17.651Z,12.00
2019-01-29T20:41:47.767Z,11.70
2019-01-29T20:44:17.231Z,11.73
2019-01-29T20:46:46.808Z,12.13
2019-01-29T20:49:18.887Z,11.93
2019-01-29T20:51:47.935Z,12.40
2019-01-29T20:54:17.888Z,12.43
2019-01-29T20:56:47.250Z,13.50
2019-01-29T20:59:16.581Z,11.60
2019-01-29T21:01:48.879Z,11.20
2019-01-29T21:04:18.224Z,11.97
2019-01-29T21:06:47.607Z,11.60
2019-01-29T21:09:18.930Z,11.75
2019-01-29T21:11:48.192Z,11.23
2019-01-29T21:14:18.258Z,10.68
2019-01-29T21:16:47.555Z,10.43
2019-01-29T21:19:16.883Z,10.60
2019-01-29T21:21:46.231Z,11.07
2019-01-29T21:24:15.604Z,11.10
2019-01-29T21:26:44.931Z,10.87
2019-01-29T21:29:14.917Z,11.33
2019-01-29T21:31:44.890Z,11.25
2019-01-29T21:34:14.209Z,10.97
2019-01-29T21:36:44.350Z,10.88
2019-01-29T21:39:14.371Z,11.05
2019-01-29T21:41:44.660Z,13.85
2019-01-29T21:44:14.230Z,11.83
2019-01-29T21:46:43.439Z,10.93
2019-01-29T21:49:14.001Z,12.90
2019-01-29T21:51:43.414Z,13.07
2019-01-29T21:54:12.907Z,13.78
2019-01-29T21:56:42.773Z,13.40
2019-01-29T21:59:13.659Z,15.55
2019-01-29T22:01:43.979Z,16.32
2019-01-29T22:04:14.146Z,14.53
2019-01-29T22:06:44.253Z,16.62
2019-01-29T22:09:14.135Z,18.92
2019-01-29T22:11:44.171Z,20.95
2019-01-29T22:14:17.084Z,24.27
2019-01-29T22:16:47.050Z,25.88
2019-01-29T22:19:16.486Z,24.57
2019-01-29T22:21:46.516Z,23.92
2019-01-29T22:24:16.658Z,21.73
2019-01-29T22:26:46.565Z,21.85
2019-01-29T22:29:23.157Z,21.52
2019-01-29T22:31:47.490Z,20.25
2019-01-29T22:34:17.396Z,20.60
2019-01-29T22:36:47.385Z,22.48
2019-01-29T22:39:16.866Z,24.77
2019-01-29T22:41:54.086Z,25.08
2019-01-29T22:44:24.065Z,34.05
2019-01-29T22:46:53.948Z,37.20
2019-01-29T22:49:23.271Z,44.10
2019-01-29T22:51:52.455Z,38.90
2019-01-29T22:54:21.827Z,29.90
2019-01-29T22:56:54.578Z,26.83
2019-01-29T22:59:33.185Z,27.53
2019-01-29T23:01:56.558Z,23.97
2019-01-29T23:04:26.087Z,20.48
2019-01-29T23:06:55.515Z,19.60
2019-01-29T23:09:25.543Z,20.62
2019-01-29T23:11:55.847Z,19.33
2019-01-29T23:14:25.660Z,21.45
2019-01-29T23:16:56.163Z,19.90
2019-01-29T23:19:25.625Z,19.60
2019-01-29T23:21:55.379Z,20.77
2019-01-29T23:24:25.170Z,19.65
2019-01-29T23:26:55.067Z,18.37
2019-01-29T23:29:24.246Z,17.33
2019-01-29T23:31:54.082Z,18.05
2019-01-29T23:34:23.558Z,19.30
2019-01-29T23:36:52.755Z,19.73
2019-01-29T23:39:22.422Z,19.90
2019-01-29T23:41:51.771Z,21.77
2019-01-29T23:44:21.446Z,19.55
2019-01-29T23:46:52.868Z,17.95
2019-01-29T23:49:22.774Z,20.00
2019-01-29T23:51:52.426Z,18.82
2019-01-29T23:54:22.050Z,19.02
2019-01-29T23:56:51.873Z,18.40
2019-01-29T23:59:21.763Z,17.62
